Time;durP1;ratioP1;P1;durP2;ratioP2;P2;SDS_P1;SDS_P2;PMS_P1;PMS_P2;Temp;Humidity;BMP_temperature;BMP_pressure;BME280_temperature;BME280_humidity;BME280_pressure;Samples;Min_cycle;Max_cycle;Signal;HPM_P1;HPM_P2
2023/12/14 00:00:34;;;;;;;0.00;0.00;;;;;;;6.37;100.00;94260.84;4344251;32;20201;-63
2023/12/14 00:02:59;;;;;;;0.20;0.20;;;;;;;6.29;100.00;94275.47;4340408;32;20189;-62
2023/12/14 00:05:24;;;;;;;0.30;0.27;;;;;;;6.35;100.00;94270.88;4343084;32;20248;-62
2023/12/14 00:07:51;;;;;;;0.17;0.17;;;;;;;6.28;100.00;94276.53;4342218;32;20217;-62
2023/12/14 00:10:17;;;;;;;0.20;0.20;;;;;;;6.43;100.00;94276.25;4335876;32;20293;-61
2023/12/14 00:12:43;;;;;;;0.10;0.10;;;;;;;6.48;100.00;94284.03;4337917;32;20305;-62
2023/12/14 00:15:09;;;;;;;0.17;0.17;;;;;;;6.30;100.00;94284.13;4346578;32;20312;-62
2023/12/14 00:17:34;;;;;;;0.00;0.00;;;;;;;6.35;100.00;94287.47;4333626;32;20209;-61
2023/12/14 00:19:59;;;;;;;0.23;0.20;;;;;;;6.29;100.00;94285.22;4335419;32;20205;-63
2023/12/14 00:22:25;;;;;;;0.50;0.50;;;;;;;6.31;100.00;94283.06;4335368;32;20223;-62
2023/12/14 00:24:50;;;;;;;0.10;0.10;;;;;;;6.41;100.00;94294.22;4348396;32;20193;-62
2023/12/14 00:27:15;;;;;;;0.20;0.20;;;;;;;6.47;100.00;94292.22;4341990;32;20292;-62
2023/12/14 00:29:41;;;;;;;0.33;0.33;;;;;;;6.42;100.00;94292.34;4344540;32;20192;-62
2023/12/14 00:32:06;;;;;;;0.13;0.13;;;;;;;6.32;100.00;94301.22;4335327;32;20198;-62
2023/12/14 00:34:31;;;;;;;0.20;0.20;;;;;;;6.31;100.00;94304.12;4329907;32;20229;-62
2023/12/14 00:36:57;;;;;;;0.23;0.10;;;;;;;6.40;100.00;94300.53;4334714;32;20216;-62
2023/12/14 00:39:22;;;;;;;0.00;0.00;;;;;;;6.38;100.00;94299.28;4331168;32;20240;-61
2023/12/14 00:41:47;;;;;;;5.53;0.63;;;;;;;6.35;100.00;94302.47;4345567;32;20325;-62
2023/12/14 00:44:13;;;;;;;0.13;0.13;;;;;;;6.38;100.00;94315.84;4345222;32;20232;-62
2023/12/14 00:46:38;;;;;;;0.20;0.20;;;;;;;6.41;100.00;94309.22;4346191;32;20205;-62
2023/12/14 00:49:03;;;;;;;0.10;0.10;;;;;;;6.28;100.00;94318.66;4342558;32;20309;-62
2023/12/14 00:51:29;;;;;;;0.20;0.20;;;;;;;6.17;100.00;94320.69;4334403;32;20190;-62
2023/12/14 00:53:54;;;;;;;0.13;0.13;;;;;;;6.18;100.00;94324.91;4342556;32;20197;-62
2023/12/14 00:56:20;;;;;;;0.10;0.10;;;;;;;6.27;100.00;94329.47;4336794;32;20212;-62
2023/12/14 00:58:45;;;;;;;0.10;0.10;;;;;;;6.31;100.00;94327.84;4339823;32;20255;-62
2023/12/14 01:01:10;;;;;;;0.00;0.00;;;;;;;6.46;100.00;94332.81;4349191;32;20284;-62
2023/12/14 01:03:36;;;;;;;0.50;0.40;;;;;;;6.30;100.00;94340.22;4348121;32;20193;-62
2023/12/14 01:06:01;;;;;;;0.00;0.00;;;;;;;6.31;100.00;94346.28;4339224;32;20227;-62
2023/12/14 01:08:26;;;;;;;0.30;0.27;;;;;;;6.24;100.00;94351.13;4345974;32;20198;-61
2023/12/14 01:10:52;;;;;;;0.10;0.10;;;;;;;6.29;100.00;94354.47;4336362;32;20189;-62
2023/12/14 01:13:17;;;;;;;0.23;0.23;;;;;;;6.34;100.00;94362.28;4343408;32;20197;-62
2023/12/14 01:15:42;;;;;;;1.80;0.50;;;;;;;6.46;100.00;94372.34;4350066;32;20247;-62
2023/12/14 01:18:08;;;;;;;2.43;0.23;;;;;;;6.44;100.00;94367.34;4342896;32;20197;-62
2023/12/14 01:20:33;;;;;;;0.17;0.10;;;;;;;6.29;100.00;94370.25;4336538;32;20216;-62
2023/12/14 01:22:58;;;;;;;0.30;0.30;;;;;;;6.45;100.00;94382.09;4347023;32;20269;-62
2023/12/14 01:25:24;;;;;;;0.10;0.10;;;;;;;6.36;100.00;94378.56;4345766;32;20197;-62
2023/12/14 01:27:49;;;;;;;0.20;0.20;;;;;;;6.26;100.00;94380.59;4349295;32;20190;-62
2023/12/14 01:30:14;;;;;;;0.73;0.73;;;;;;;6.41;100.00;94389.03;4346651;32;20208;-61
2023/12/14 01:32:40;;;;;;;0.10;0.10;;;;;;;6.28;100.00;94379.22;4335391;32;20205;-62
2023/12/14 01:35:05;;;;;;;0.13;0.13;;;;;;;6.29;100.00;94390.53;4335447;32;20202;-62
2023/12/14 01:37:31;;;;;;;0.57;0.47;;;;;;;6.28;100.00;94388.97;4342470;32;20197;-61
2023/12/14 01:39:56;;;;;;;0.00;0.00;;;;;;;6.30;100.00;94392.88;4344894;32;20217;-62
2023/12/14 01:42:21;;;;;;;0.33;0.33;;;;;;;6.24;100.00;94399.31;4349242;32;20208;-61
2023/12/14 01:44:46;;;;;;;0.10;0.10;;;;;;;6.20;100.00;94398.34;4337899;32;20195;-62
2023/12/14 01:47:12;;;;;;;0.00;0.00;;;;;;;6.31;100.00;94404.22;4346607;32;20205;-62
2023/12/14 01:49:37;;;;;;;0.40;0.40;;;;;;;6.10;100.00;94409.81;4341929;32;20217;-62
2023/12/14 01:52:03;;;;;;;0.10;0.10;;;;;;;6.25;100.00;94408.00;4337717;32;20208;-62
2023/12/14 01:54:28;;;;;;;0.10;0.10;;;;;;;6.18;100.00;94411.00;4342435;32;20224;-62
2023/12/14 01:56:54;;;;;;;0.03;0.03;;;;;;;6.26;100.00;94417.44;4343640;32;20247;-61
2023/12/14 01:59:19;;;;;;;0.30;0.23;;;;;;;6.27;100.00;94424.28;4342183;32;20224;-62
2023/12/14 02:01:47;;;;;;;0.10;0.10;;;;;;;6.27;100.00;94429.56;4351832;32;20223;-62
2023/12/14 02:04:13;;;;;;;0.10;0.10;;;;;;;6.39;100.00;94427.25;4336166;32;20194;-62
2023/12/14 02:06:39;;;;;;;0.07;0.07;;;;;;;6.19;100.00;94434.41;4341225;32;20305;-62
2023/12/14 02:09:05;;;;;;;0.23;0.23;;;;;;;6.38;100.00;94430.97;4347079;32;20293;-62
2023/12/14 02:11:30;;;;;;;0.40;0.40;;;;;;;6.43;100.00;94441.44;4346242;32;20356;-62
2023/12/14 02:13:55;;;;;;;0.00;0.00;;;;;;;6.38;100.00;94441.50;4343916;32;20193;-61
2023/12/14 02:16:21;;;;;;;0.00;0.00;;;;;;;6.22;100.00;94442.81;4347070;32;20181;-62
2023/12/14 02:18:46;;;;;;;0.67;0.27;;;;;;;6.17;100.00;94438.41;4345697;32;20253;-61
2023/12/14 02:21:11;;;;;;;0.00;0.00;;;;;;;6.33;100.00;94442.34;4341542;32;20216;-62
2023/12/14 02:23:46;;;;;;;0.10;0.10;;;;;;;6.37;100.00;94450.47;4330695;32;20201;-62
2023/12/14 02:26:12;;;;;;;0.20;0.17;;;;;;;6.32;100.00;94450.53;4360373;32;20259;-62
2023/12/14 02:28:37;;;;;;;0.00;0.00;;;;;;;6.18;100.00;94453.91;4339427;32;20308;-62
2023/12/14 02:31:03;;;;;;;1.70;0.40;;;;;;;6.12;100.00;94460.31;4349943;32;20301;-62
2023/12/14 02:33:28;;;;;;;0.10;0.10;;;;;;;6.17;100.00;94462.09;4349710;32;20295;-61
2023/12/14 02:35:54;;;;;;;1.10;0.30;;;;;;;6.18;100.00;94463.66;4356435;32;20198;-62
2023/12/14 02:38:19;;;;;;;0.10;0.10;;;;;;;6.05;100.00;94472.28;4338803;32;20193;-62
2023/12/14 02:40:44;;;;;;;0.10;0.10;;;;;;;6.05;100.00;94475.69;4343343;32;20193;-62
2023/12/14 02:43:10;;;;;;;0.10;0.10;;;;;;;6.08;100.00;94469.06;4349279;32;20296;-62
2023/12/14 02:45:35;;;;;;;0.20;0.20;;;;;;;6.10;100.00;94474.84;4348578;32;20194;-62
2023/12/14 02:48:00;;;;;;;0.00;0.00;;;;;;;6.08;100.00;94485.66;4350335;32;20253;-61
2023/12/14 02:50:26;;;;;;;0.00;0.00;;;;;;;5.99;100.00;94486.59;4332806;32;20216;-62
2023/12/14 02:52:51;;;;;;;0.10;0.10;;;;;;;6.04;100.00;94489.91;4336336;32;20211;-61
2023/12/14 02:55:16;;;;;;;0.00;0.00;;;;;;;6.01;100.00;94498.41;4350943;32;20225;-62
2023/12/14 02:57:42;;;;;;;0.00;0.00;;;;;;;5.92;100.00;94496.69;4347947;32;20288;-62
2023/12/14 03:00:08;;;;;;;0.10;0.10;;;;;;;5.94;100.00;94494.56;4338418;32;20193;-62
2023/12/14 03:02:34;;;;;;;2.10;0.40;;;;;;;5.92;100.00;94499.31;4347679;32;20250;-62
2023/12/14 03:04:59;;;;;;;0.40;0.40;;;;;;;5.91;100.00;94501.16;4345828;32;20290;-62
2023/12/14 03:07:24;;;;;;;0.20;0.20;;;;;;;5.94;100.00;94500.59;4342897;32;20233;-61
2023/12/14 03:09:49;;;;;;;0.53;0.53;;;;;;;5.95;100.00;94502.16;4357882;32;20243;-62
2023/12/14 03:12:15;;;;;;;0.97;0.60;;;;;;;5.95;100.00;94496.91;4347788;32;20193;-62
2023/12/14 03:14:40;;;;;;;0.30;0.30;;;;;;;6.06;100.00;94514.09;4346696;32;20303;-62
2023/12/14 03:17:07;;;;;;;0.10;0.10;;;;;;;5.99;100.00;94513.69;4341156;32;20193;-62
2023/12/14 03:19:32;;;;;;;0.10;0.10;;;;;;;5.95;100.00;94517.19;4353087;32;20252;-62
2023/12/14 03:21:57;;;;;;;0.20;0.20;;;;;;;6.00;100.00;94522.38;4334888;32;20286;-62
2023/12/14 03:24:23;;;;;;;0.27;0.27;;;;;;;5.81;100.00;94522.34;4342807;32;20215;-62
2023/12/14 03:26:48;;;;;;;0.30;0.30;;;;;;;5.85;100.00;94524.09;4337191;32;20189;-62
2023/12/14 03:29:14;;;;;;;0.07;0.07;;;;;;;6.02;100.00;94518.41;4335287;32;20221;-62
2023/12/14 03:31:39;;;;;;;0.00;0.00;;;;;;;5.93;100.00;94522.72;4342687;32;20335;-62
2023/12/14 03:34:05;;;;;;;0.10;0.10;;;;;;;5.80;100.00;94531.28;4345950;32;20215;-62
2023/12/14 03:36:30;;;;;;;0.10;0.10;;;;;;;5.90;100.00;94540.94;4341148;32;20235;-61
2023/12/14 03:38:56;;;;;;;0.33;0.33;;;;;;;5.78;100.00;94543.94;4342512;32;20194;-61
2023/12/14 03:41:21;;;;;;;0.40;0.40;;;;;;;5.77;100.00;94552.91;4351584;32;20193;-61
2023/12/14 03:43:46;;;;;;;0.27;0.27;;;;;;;5.82;100.00;94556.25;4350864;32;20277;-61
2023/12/14 03:46:12;;;;;;;0.30;0.30;;;;;;;5.91;100.00;94558.28;4335540;32;20177;-62
2023/12/14 03:48:37;;;;;;;0.10;0.10;;;;;;;5.92;100.00;94558.00;4335815;32;20202;-62
2023/12/14 03:51:03;;;;;;;0.30;0.30;;;;;;;5.86;100.00;94569.63;4342480;32;20228;-62
2023/12/14 03:53:29;;;;;;;0.20;0.20;;;;;;;5.85;100.00;94568.84;4349427;32;20193;-62
2023/12/14 03:55:54;;;;;;;0.60;0.33;;;;;;;5.78;100.00;94575.53;4347339;32;20300;-62
2023/12/14 03:58:20;;;;;;;0.10;0.10;;;;;;;5.84;100.00;94571.75;4351953;32;20216;-62
2023/12/14 04:00:45;;;;;;;0.43;0.43;;;;;;;5.77;100.00;94580.00;4344497;32;20212;-62
2023/12/14 04:03:10;;;;;;;0.40;0.40;;;;;;;5.80;100.00;94583.94;4344733;32;24954;-62
2023/12/14 04:05:36;;;;;;;0.20;0.20;;;;;;;5.97;100.00;94589.53;4339327;32;20201;-62
2023/12/14 04:08:01;;;;;;;0.10;0.10;;;;;;;5.99;100.00;94592.66;4338225;32;20256;-62
2023/12/14 04:10:26;;;;;;;0.10;0.10;;;;;;;5.98;100.00;94591.09;4348116;32;20239;-61
2023/12/14 04:12:52;;;;;;;0.37;0.37;;;;;;;6.09;100.00;94591.75;4340004;32;20243;-61
2023/12/14 04:15:17;;;;;;;0.20;0.20;;;;;;;5.99;100.00;94608.47;4348767;32;20201;-62
2023/12/14 04:17:42;;;;;;;0.20;0.20;;;;;;;5.95;100.00;94602.19;4345411;32;20189;-61
2023/12/14 04:20:08;;;;;;;0.30;0.30;;;;;;;6.00;100.00;94615.28;4336272;32;20236;-62
2023/12/14 04:22:33;;;;;;;0.43;0.43;;;;;;;5.89;100.00;94615.69;4341636;32;20201;-62
2023/12/14 04:24:59;;;;;;;0.10;0.10;;;;;;;5.87;100.00;94621.19;4339311;32;20186;-62
2023/12/14 04:27:28;;;;;;;0.40;0.33;;;;;;;5.75;100.00;94623.44;4342553;32;20198;-61
2023/12/14 04:29:53;;;;;;;0.40;0.40;;;;;;;5.81;100.00;94625.75;4344481;32;20243;-62
2023/12/14 04:32:18;;;;;;;0.40;0.40;;;;;;;5.80;100.00;94632.06;4340656;32;20294;-62
2023/12/14 04:34:44;;;;;;;0.50;0.50;;;;;;;5.72;100.00;94634.53;4338002;32;20202;-61
2023/12/14 04:37:09;;;;;;;0.40;0.40;;;;;;;5.73;100.00;94631.62;4347398;32;20229;-62
2023/12/14 04:39:35;;;;;;;0.37;0.37;;;;;;;5.71;100.00;94639.00;4347263;32;20237;-62
2023/12/14 04:42:00;;;;;;;0.13;0.13;;;;;;;5.72;100.00;94650.31;4346133;32;20223;-62
2023/12/14 04:44:25;;;;;;;0.57;0.57;;;;;;;5.76;100.00;94643.44;4338392;32;20210;-62
2023/12/14 04:46:51;;;;;;;0.33;0.33;;;;;;;5.69;100.00;94650.87;4350156;32;20243;-62
2023/12/14 04:49:16;;;;;;;0.23;0.23;;;;;;;5.77;100.00;94651.06;4335775;32;20192;-62
2023/12/14 04:51:42;;;;;;;0.20;0.20;;;;;;;5.73;100.00;94659.78;4348376;32;20291;-62
2023/12/14 04:54:08;;;;;;;1.13;0.60;;;;;;;5.65;100.00;94660.38;4346137;32;20202;-61
2023/12/14 04:56:33;;;;;;;0.97;0.40;;;;;;;5.90;100.00;94656.72;4343924;32;20336;-62
2023/12/14 04:58:59;;;;;;;0.20;0.20;;;;;;;5.88;100.00;94670.12;4344119;32;20209;-61
2023/12/14 05:01:26;;;;;;;0.20;0.20;;;;;;;6.03;100.00;94671.84;4334815;32;20202;-62
2023/12/14 05:03:52;;;;;;;0.10;0.10;;;;;;;5.70;100.00;94673.47;4344050;32;20212;-62
2023/12/14 05:06:18;;;;;;;0.10;0.10;;;;;;;5.81;100.00;94682.88;4333617;32;20293;-62
2023/12/14 05:08:43;;;;;;;0.17;0.17;;;;;;;5.71;100.00;94680.31;4340708;32;20220;-62
2023/12/14 05:11:08;;;;;;;0.30;0.30;;;;;;;5.86;100.00;94688.06;4339753;32;20190;-62
2023/12/14 05:13:35;;;;;;;0.90;0.87;;;;;;;5.85;100.00;94689.91;4346916;32;20219;-62
2023/12/14 05:16:00;;;;;;;0.10;0.10;;;;;;;5.72;100.00;94690.56;4338087;32;20189;-61
2023/12/14 05:18:26;;;;;;;0.10;0.10;;;;;;;5.88;100.00;94696.47;4344355;32;20327;-62
2023/12/14 05:20:52;;;;;;;0.30;0.30;;;;;;;5.87;100.00;94700.94;4334534;32;20239;-61
2023/12/14 05:23:17;;;;;;;0.13;0.13;;;;;;;5.72;100.00;94705.56;4335247;32;20236;-62
2023/12/14 05:25:44;;;;;;;0.10;0.10;;;;;;;5.78;100.00;94709.72;4342209;32;20272;-61
2023/12/14 05:28:09;;;;;;;0.20;0.20;;;;;;;5.74;100.00;94706.88;4343161;32;20193;-62
2023/12/14 05:30:34;;;;;;;0.10;0.10;;;;;;;5.79;100.00;94713.94;4334819;32;20278;-62
2023/12/14 05:32:59;;;;;;;0.30;0.10;;;;;;;5.92;100.00;94723.03;4347338;32;20315;-62
2023/12/14 05:35:25;;;;;;;0.47;0.43;;;;;;;5.62;100.00;94729.31;4340359;32;20249;-62
2023/12/14 05:37:50;;;;;;;0.40;0.40;;;;;;;5.69;100.00;94732.44;4334406;32;20252;-61
2023/12/14 05:40:16;;;;;;;0.20;0.20;;;;;;;5.60;100.00;94739.38;4339769;32;20302;-62
2023/12/14 05:42:41;;;;;;;0.10;0.10;;;;;;;5.62;100.00;94745.91;4343926;32;20265;-61
2023/12/14 05:45:07;;;;;;;0.40;0.40;;;;;;;5.48;100.00;94745.75;4337547;32;20197;-62
2023/12/14 05:47:34;;;;;;;0.40;0.40;;;;;;;5.47;100.00;94749.44;4339382;32;20205;-61
2023/12/14 05:50:00;;;;;;;0.10;0.10;;;;;;;5.56;100.00;94746.22;4335655;32;20215;-61
2023/12/14 05:52:25;;;;;;;0.10;0.10;;;;;;;5.62;100.00;94755.63;4346448;32;20297;-61
2023/12/14 05:54:50;;;;;;;0.40;0.40;;;;;;;5.71;100.00;94756.63;4341067;32;20195;-62
2023/12/14 05:57:16;;;;;;;0.20;0.20;;;;;;;5.65;100.00;94762.97;4341604;32;20217;-61
2023/12/14 05:59:41;;;;;;;0.60;0.60;;;;;;;5.76;100.00;94769.75;4341515;32;20283;-62
2023/12/14 06:02:07;;;;;;;0.57;0.57;;;;;;;5.93;100.00;94772.78;4343756;32;20182;-62
2023/12/14 06:04:32;;;;;;;2.03;0.60;;;;;;;5.95;100.00;94781.19;4343264;32;20201;-61
2023/12/14 06:06:58;;;;;;;0.50;0.50;;;;;;;5.91;100.00;94784.62;4347731;32;20197;-61
2023/12/14 06:09:29;;;;;;;0.70;0.70;;;;;;;5.86;100.00;94791.47;4331901;32;20224;-61
2023/12/14 06:11:55;;;;;;;0.30;0.30;;;;;;;5.78;100.00;94796.56;4355876;32;20197;-61
2023/12/14 06:14:20;;;;;;;0.70;0.70;;;;;;;5.88;100.00;94793.84;4341907;32;20282;-62
2023/12/14 06:16:45;;;;;;;0.80;0.80;;;;;;;5.76;100.00;94803.94;4337969;32;20198;-61
2023/12/14 06:19:11;;;;;;;1.00;0.67;;;;;;;5.92;100.00;94810.69;4347202;32;20275;-62
2023/12/14 06:21:36;;;;;;;0.57;0.57;;;;;;;5.95;100.00;94806.72;4337766;32;20198;-62
2023/12/14 06:24:02;;;;;;;0.60;0.60;;;;;;;5.92;100.00;94813.31;4342186;32;20227;-62
2023/12/14 06:26:28;;;;;;;0.70;0.70;;;;;;;5.87;100.00;94819.38;4333609;32;20194;-62
2023/12/14 06:28:53;;;;;;;0.90;0.90;;;;;;;5.95;100.00;94818.03;4329722;32;20241;-61
2023/12/14 06:31:21;;;;;;;0.77;0.77;;;;;;;6.01;100.00;94827.47;4352144;32;20292;-62
2023/12/14 06:33:50;;;;;;;1.27;1.27;;;;;;;6.02;100.00;94826.41;4338664;32;20294;-61
2023/12/14 06:36:19;;;;;;;1.40;0.87;;;;;;;5.96;100.00;94824.09;4341612;32;20321;-62
2023/12/14 06:38:44;;;;;;;0.83;0.83;;;;;;;5.84;100.00;94835.72;4333990;32;20296;-61
2023/12/14 06:41:21;;;;;;;1.37;1.27;;;;;;;5.82;100.00;94840.47;4344702;32;20287;-62
2023/12/14 06:43:47;;;;;;;0.70;0.70;;;;;;;5.90;100.00;94841.75;4348445;32;20225;-62
2023/12/14 06:46:12;;;;;;;0.80;0.80;;;;;;;5.78;100.00;94844.72;4352747;32;20358;-62
2023/12/14 06:48:38;;;;;;;0.40;0.40;;;;;;;5.68;100.00;94852.69;4339692;32;20212;-61
2023/12/14 06:51:03;;;;;;;0.70;0.70;;;;;;;5.75;100.00;94861.06;4334669;32;20290;-62
2023/12/14 06:53:30;;;;;;;0.77;0.77;;;;;;;5.72;100.00;94860.81;4340557;32;20208;-61
2023/12/14 06:55:55;;;;;;;0.60;0.60;;;;;;;5.84;100.00;94866.50;4335306;32;20201;-61
2023/12/14 06:58:20;;;;;;;1.03;1.03;;;;;;;6.02;100.00;94881.69;4338315;32;20353;-61
2023/12/14 07:00:46;;;;;;;1.30;1.10;;;;;;;6.00;100.00;94867.22;4345548;32;20213;-62
2023/12/14 07:03:11;;;;;;;1.27;1.17;;;;;;;5.97;100.00;94881.72;4343562;32;20273;-62
2023/12/14 07:05:36;;;;;;;0.87;0.87;;;;;;;5.96;100.00;94885.41;4345635;32;20257;-61
2023/12/14 07:08:02;;;;;;;0.90;0.90;;;;;;;6.05;100.00;94881.13;4343719;32;20204;-62
2023/12/14 07:10:27;;;;;;;0.77;0.77;;;;;;;6.10;100.00;94881.09;4344599;32;20201;-62
2023/12/14 07:12:52;;;;;;;1.07;0.97;;;;;;;6.12;100.00;94894.78;4338978;32;20194;-61
2023/12/14 07:15:18;;;;;;;0.60;0.60;;;;;;;5.89;100.00;94897.31;4344458;32;20192;-61
2023/12/14 07:17:43;;;;;;;0.80;0.80;;;;;;;5.85;100.00;94903.09;4337605;32;20211;-61
2023/12/14 07:20:10;;;;;;;0.80;0.80;;;;;;;5.87;100.00;94911.50;4343093;32;20257;-61
2023/12/14 07:22:35;;;;;;;0.57;0.57;;;;;;;5.78;100.00;94912.38;4343301;32;20204;-61
2023/12/14 07:25:00;;;;;;;1.83;1.50;;;;;;;5.98;100.00;94914.91;4344165;32;20289;-61
2023/12/14 07:27:26;;;;;;;1.20;1.10;;;;;;;6.09;100.00;94919.00;4345248;32;20244;-61
2023/12/14 07:29:51;;;;;;;1.43;1.43;;;;;;;6.08;100.00;94927.97;4354414;32;20201;-62
2023/12/14 07:32:16;;;;;;;1.43;1.37;;;;;;;6.29;100.00;94923.34;4344146;32;20244;-62
2023/12/14 07:34:42;;;;;;;1.97;1.87;;;;;;;6.06;100.00;94932.72;4341020;32;20260;-61
2023/12/14 07:37:07;;;;;;;1.73;1.63;;;;;;;6.04;100.00;94937.47;4340586;32;20198;-62
2023/12/14 07:39:32;;;;;;;4.30;1.10;;;;;;;6.04;100.00;94939.31;4339069;32;20279;-62
2023/12/14 07:41:58;;;;;;;0.30;0.30;;;;;;;5.93;100.00;94940.47;4342257;32;20190;-60
2023/12/14 07:44:25;;;;;;;2.60;2.40;;;;;;;8.93;100.00;94941.09;4341542;32;20192;-60
2023/12/14 07:46:51;;;;;;;2.53;2.13;;;;;;;10.38;100.00;94945.56;4346474;32;20181;-60
2023/12/14 07:49:20;;;;;;;1.20;1.20;;;;;;;11.39;100.00;94952.06;4343604;32;20304;-60
2023/12/14 07:51:46;;;;;;;2.23;1.23;;;;;;;12.08;99.26;94950.38;4342437;32;20204;-60
2023/12/14 07:54:11;;;;;;;1.37;1.27;;;;;;;12.60;93.97;94955.69;4339963;32;20202;-61
2023/12/14 07:56:36;;;;;;;2.80;0.90;;;;;;;12.95;90.44;94959.88;4343481;32;20189;-60
2023/12/14 07:59:06;;;;;;;1.20;1.10;;;;;;;13.25;86.09;94965.31;4342767;32;20193;-62
2023/12/14 08:01:31;;;;;;;2.53;1.43;;;;;;;12.22;84.80;94966.97;4337004;32;20189;-62
2023/12/14 08:03:57;;;;;;;1.30;1.30;;;;;;;10.31;93.41;94983.09;4339207;32;20177;-60
2023/12/14 08:08:51;;;;;;;1.00;1.00;;;;;;;8.34;100.00;94990.16;4300819;32;20275;-57
2023/12/14 08:11:19;;;;;;;0.90;0.90;;;;;;;7.93;100.00;94992.56;4297675;32;20269;-57
2023/12/14 08:13:45;;;;;;;0.90;0.87;;;;;;;7.38;100.00;94991.38;4336214;32;20181;-58
2023/12/14 08:16:17;;;;;;;2.73;1.40;;;;;;;7.47;100.00;94995.00;4335827;32;20274;-57
2023/12/14 08:18:48;;;;;;;1.03;1.03;;;;;;;7.52;100.00;94997.53;4320697;32;20265;-55
2023/12/14 08:21:14;;;;;;;0.90;0.90;;;;;;;7.05;100.00;94996.47;4317230;32;20229;-57
2023/12/14 08:23:40;;;;;;;1.17;1.17;;;;;;;7.22;100.00;95007.38;4311588;32;20296;-57
2023/12/14 08:26:07;;;;;;;1.30;1.10;;;;;;;6.93;100.00;95008.44;4322198;32;20424;-57
2023/12/14 08:28:36;;;;;;;1.30;1.30;;;;;;;6.89;100.00;95010.84;4318107;32;20200;-58
2023/12/14 08:31:06;;;;;;;1.97;1.30;;;;;;;6.92;100.00;95014.78;4328279;32;20282;-58
2023/12/14 08:33:31;;;;;;;2.30;2.13;;;;;;;6.89;100.00;95021.38;4324370;32;20309;-57
2023/12/14 08:35:57;;;;;;;0.93;0.90;;;;;;;6.82;100.00;95026.22;4306610;32;20308;-58
2023/12/14 08:38:24;;;;;;;1.73;1.63;;;;;;;6.86;100.00;95030.63;4326243;32;20261;-57
2023/12/14 08:40:50;;;;;;;1.40;1.30;;;;;;;6.97;100.00;95038.47;4342294;32;20219;-59
2023/12/14 08:43:17;;;;;;;1.60;1.53;;;;;;;7.10;100.00;95037.81;4287274;33;20321;-57
2023/12/14 08:45:43;;;;;;;1.97;1.87;;;;;;;6.79;100.00;95053.91;4317519;32;20385;-57
2023/12/14 08:48:08;;;;;;;1.40;1.30;;;;;;;6.73;100.00;95051.59;4333440;32;20307;-56
2023/12/14 08:50:34;;;;;;;0.53;0.53;;;;;;;6.68;100.00;95049.75;4344574;32;20239;-57
2023/12/14 08:53:04;;;;;;;1.63;1.50;;;;;;;6.72;100.00;95058.69;4336132;32;20189;-57
2023/12/14 08:55:29;;;;;;;7.83;1.50;;;;;;;6.60;100.00;95066.19;4338805;32;20207;-57
2023/12/14 08:57:54;;;;;;;1.10;1.00;;;;;;;6.66;100.00;95067.69;4341320;32;20286;-57
2023/12/14 09:00:21;;;;;;;0.97;0.97;;;;;;;6.75;100.00;95067.91;4336488;33;20200;-57
2023/12/14 09:02:46;;;;;;;1.17;1.17;;;;;;;6.79;100.00;95075.00;4340028;32;20275;-58
2023/12/14 09:05:14;;;;;;;1.27;1.27;;;;;;;6.80;100.00;95075.78;4269545;32;20427;-58
2023/12/14 09:07:39;;;;;;;0.73;0.73;;;;;;;6.87;100.00;95078.88;4327085;32;20189;-63
2023/12/14 09:10:06;;;;;;;0.63;0.63;;;;;;;10.92;100.00;95063.94;4329395;32;20351;-64
2023/12/14 09:12:32;;;;;;;1.73;1.10;;;;;;;13.48;98.85;95073.25;4316820;32;20229;-64
2023/12/14 09:14:57;;;;;;;0.53;0.53;;;;;;;14.89;86.28;95077.28;4314360;32;20196;-63
2023/12/14 09:17:24;;;;;;;0.40;0.40;;;;;;;15.44;79.02;95081.50;4297692;32;20259;-64
2023/12/14 09:19:49;;;;;;;0.50;0.50;;;;;;;15.91;71.71;95086.53;4334015;32;20263;-63
2023/12/14 09:22:14;;;;;;;0.93;0.63;;;;;;;15.74;60.07;95099.00;4331789;32;20190;-62
2023/12/14 09:24:41;;;;;;;1.03;1.03;;;;;;;15.99;61.79;95099.84;4330254;32;20306;-61
2023/12/14 09:27:07;;;;;;;0.83;0.83;;;;;;;15.99;59.84;95099.06;4337511;32;20227;-61
2023/12/14 09:29:33;;;;;;;0.50;0.50;;;;;;;16.01;60.31;95110.19;4288149;32;20265;-59
2023/12/14 09:31:58;;;;;;;0.87;0.87;;;;;;;16.24;59.12;95105.97;4311595;32;20216;-60
2023/12/14 09:34:24;;;;;;;0.63;0.63;;;;;;;13.07;65.37;95125.13;4309497;32;20193;-58
2023/12/14 09:36:53;;;;;;;0.50;0.50;;;;;;;10.80;76.76;95132.69;4341909;32;20204;-59
2023/12/14 09:39:21;;;;;;;0.77;0.77;;;;;;;10.05;80.93;95132.31;4347776;32;20228;-58
2023/12/14 09:41:51;;;;;;;0.43;0.43;;;;;;;9.27;85.85;95132.09;4328231;32;20177;-58
2023/12/14 09:44:18;;;;;;;0.70;0.70;;;;;;;8.79;89.30;95131.47;4311348;32;20207;-59
2023/12/14 09:46:50;;;;;;;0.40;0.40;;;;;;;8.14;92.96;95135.72;4336557;32;20181;-58
2023/12/14 09:49:18;;;;;;;0.87;0.87;;;;;;;7.99;96.76;95135.91;4333730;32;20201;-57
2023/12/14 09:51:44;;;;;;;0.23;0.23;;;;;;;7.57;100.00;95132.09;4302190;32;20287;-59
2023/12/14 09:54:11;;;;;;;0.63;0.63;;;;;;;7.09;100.00;95141.75;4313926;32;20251;-58
2023/12/14 09:56:46;;;;;;;0.83;0.83;;;;;;;7.11;100.00;95142.25;4341956;32;20213;-58
2023/12/14 09:59:12;;;;;;;0.40;0.40;;;;;;;7.19;100.00;95146.94;4316300;32;20312;-58
2023/12/14 10:01:39;;;;;;;0.30;0.30;;;;;;;7.08;100.00;95151.50;4328049;32;20345;-58
2023/12/14 10:04:32;;;;;;;0.93;0.93;;;;;;;7.24;100.00;95145.06;4340729;32;20332;-58
2023/12/14 10:07:06;;;;;;;1.03;1.03;;;;;;;7.17;100.00;95147.22;4319966;32;20197;-58
2023/12/14 10:09:33;;;;;;;1.13;1.10;;;;;;;7.18;100.00;95150.66;4335636;32;20304;-59
2023/12/14 10:12:08;;;;;;;4.17;0.97;;;;;;;7.20;100.00;95153.81;4322727;32;20301;-59
2023/12/14 10:14:35;;;;;;;1.67;1.27;;;;;;;7.22;100.00;95154.31;4347425;32;20318;-58
2023/12/14 10:17:21;;;;;;;0.73;0.60;;;;;;;7.13;100.00;95148.03;4343447;32;20308;-57
2023/12/14 10:19:49;;;;;;;0.77;0.77;;;;;;;7.01;100.00;95158.97;4329288;32;20297;-57
2023/12/14 10:22:17;;;;;;;1.27;0.60;;;;;;;7.07;100.00;95162.31;4293132;32;20361;-58
2023/12/14 10:24:44;;;;;;;0.83;0.83;;;;;;;6.99;100.00;95152.38;4336998;32;20285;-59
2023/12/14 10:27:11;;;;;;;0.70;0.70;;;;;;;6.92;100.00;95157.16;4335528;32;20299;-58
2023/12/14 10:29:40;;;;;;;0.47;0.47;;;;;;;6.99;100.00;95160.28;4338041;32;20325;-58
2023/12/14 10:32:11;;;;;;;1.80;0.87;;;;;;;6.94;100.00;95155.03;4307858;32;20411;-58
2023/12/14 10:34:37;;;;;;;0.47;0.47;;;;;;;6.97;100.00;95162.41;4335108;32;20282;-57
2023/12/14 10:37:05;;;;;;;1.27;0.93;;;;;;;7.12;100.00;95149.09;4336927;32;20304;-58
2023/12/14 10:39:35;;;;;;;1.17;1.07;;;;;;;7.03;100.00;95153.41;4326565;32;20197;-58
2023/12/14 10:42:05;;;;;;;0.60;0.60;;;;;;;6.92;100.00;95155.31;4290326;32;20310;-59
2023/12/14 10:44:37;;;;;;;0.60;0.60;;;;;;;6.96;100.00;95158.19;4295901;32;20297;-59
2023/12/14 10:47:06;;;;;;;1.23;1.17;;;;;;;7.03;100.00;95158.69;4308067;32;20322;-58
2023/12/14 10:49:32;;;;;;;0.40;0.40;;;;;;;7.06;100.00;95168.69;4335696;32;20273;-58
2023/12/14 10:52:00;;;;;;;0.50;0.50;;;;;;;7.04;100.00;95170.81;4326004;32;20348;-59
2023/12/14 10:54:28;;;;;;;0.53;0.53;;;;;;;7.23;100.00;95169.09;4320505;32;20343;-59
2023/12/14 10:56:57;;;;;;;0.43;0.43;;;;;;;7.15;100.00;95167.81;4338410;32;20309;-59
2023/12/14 10:59:25;;;;;;;0.97;0.60;;;;;;;7.54;100.00;95175.69;4323595;32;20425;-60
2023/12/14 11:01:55;;;;;;;4.23;0.73;;;;;;;7.44;100.00;95186.34;4319228;32;20361;-59
2023/12/14 11:04:27;;;;;;;0.43;0.43;;;;;;;7.43;100.00;95182.13;4334582;32;20407;-58
2023/12/14 11:06:54;;;;;;;0.80;0.80;;;;;;;7.34;100.00;95190.87;4336414;32;20286;-61
2023/12/14 11:09:27;;;;;;;0.47;0.47;;;;;;;7.32;100.00;95191.16;4306471;32;20269;-58
2023/12/14 11:11:53;;;;;;;0.93;0.93;;;;;;;7.24;100.00;95194.41;4267654;32;20278;-62
2023/12/14 11:14:24;;;;;;;0.50;0.50;;;;;;;7.10;100.00;95202.13;4324592;32;20296;-59
2023/12/14 11:16:56;;;;;;;1.23;1.13;;;;;;;7.07;100.00;95205.31;4332236;32;20339;-59
2023/12/14 11:19:21;;;;;;;0.60;0.60;;;;;;;7.12;100.00;95199.22;4292630;32;20296;-58
2023/12/14 11:22:09;;;;;;;0.40;0.40;;;;;;;7.14;100.00;95202.38;4344456;32;20361;-58
2023/12/14 11:24:36;;;;;;;0.80;0.80;;;;;;;7.07;100.00;95210.59;4313916;32;20201;-59
2023/12/14 11:27:07;;;;;;;1.20;1.10;;;;;;;7.22;100.00;95209.72;4294819;32;20305;-59
2023/12/14 11:29:32;;;;;;;0.53;0.53;;;;;;;7.34;100.00;95207.50;4324038;32;20278;-58
2023/12/14 11:32:01;;;;;;;0.67;0.67;;;;;;;7.19;100.00;95215.53;4343838;32;20324;-59